Time;durP1;ratioP1;P1;durP2;ratioP2;P2;SDS_P1;SDS_P2;PMS_P1;PMS_P2;Temp;Humidity;BMP_temperature;BMP_pressure;BME280_temperature;BME280_humidity;BME280_pressure;Samples;Min_cycle;Max_cycle;Signal;HPM_P1;HPM_P2
2023/07/04 00:00:21;;;;;;;8.20;4.30;;;;;;;13.59;77.40;100071.23;219410;1269;141130;-84
2023/07/04 00:05:23;;;;;;;11.60;4.60;;;;;;;13.48;77.96;100066.33;220151;1271;138731;-83
2023/07/04 00:10:23;;;;;;;12.30;4.80;;;;;;;13.41;78.66;100065.17;219735;1268;140909;-83
2023/07/04 00:15:24;;;;;;;9.90;4.10;;;;;;;13.36;79.51;100065.45;220273;1269;139174;-84
2023/07/04 00:20:25;;;;;;;15.40;6.00;;;;;;;13.30;79.47;100061.38;219601;1268;141103;-84
2023/07/04 00:25:26;;;;;;;12.10;5.40;;;;;;;13.24;79.95;100056.91;220581;1268;140195;-83
2023/07/04 00:30:26;;;;;;;11.40;4.90;;;;;;;13.15;79.50;100059.09;219749;1269;141497;-81
2023/07/04 00:35:27;;;;;;;11.80;4.60;;;;;;;13.11;80.19;100058.73;220190;1267;140383;-83
2023/07/04 00:40:27;;;;;;;11.50;5.20;;;;;;;13.04;80.69;100052.83;219781;1270;141310;-83
2023/07/04 00:45:31;;;;;;;14.10;4.90;;;;;;;12.97;81.23;100049.07;220092;1270;138634;-84
2023/07/04 00:50:43;;;;;;;11.50;4.90;;;;;;;12.92;80.76;100044.65;219437;1270;141471;-83
2023/07/04 00:55:47;;;;;;;12.10;6.20;;;;;;;12.88;80.89;100047.44;220582;1269;138994;-83
2023/07/04 01:00:48;;;;;;;10.20;5.00;;;;;;;12.85;80.81;100050.76;219824;1270;141379;-83
2023/07/04 01:06:06;;;;;;;12.40;4.50;;;;;;;12.82;81.08;100051.01;220183;1269;138777;-83
2023/07/04 01:11:15;;;;;;;11.30;5.40;;;;;;;12.77;81.37;100057.51;219379;1268;141425;-83
2023/07/04 01:16:18;;;;;;;13.40;5.90;;;;;;;12.72;81.96;100057.52;220108;1266;97943;-83
2023/07/04 01:21:22;;;;;;;14.00;6.00;;;;;;;12.68;82.23;100053.58;219373;1270;141257;-83
2023/07/04 01:26:36;;;;;;;13.20;5.70;;;;;;;12.63;82.32;100058.96;219975;1267;138787;-83
2023/07/04 01:31:38;;;;;;;14.90;6.10;;;;;;;12.56;82.88;100057.50;219463;1267;141053;-83
2023/07/04 01:36:42;;;;;;;12.80;5.10;;;;;;;12.52;82.68;100051.75;219735;1267;139378;-84
2023/07/04 01:41:45;;;;;;;14.40;5.40;;;;;;;12.50;82.93;100048.76;219220;1267;141440;-83
2023/07/04 01:46:45;;;;;;;14.20;5.40;;;;;;;12.46;83.21;100046.39;219841;1270;97978;-83
2023/07/04 01:51:46;;;;;;;15.30;5.00;;;;;;;12.41;83.44;100051.14;219180;1266;141034;-83
2023/07/04 01:56:52;;;;;;;11.00;5.20;;;;;;;12.39;83.75;100049.58;219808;1269;139352;-83
2023/07/04 02:01:53;;;;;;;11.10;5.60;;;;;;;12.37;84.12;100048.16;219340;1267;141659;-84
2023/07/04 02:06:53;;;;;;;14.50;5.40;;;;;;;12.34;84.50;100042.80;220617;1265;139054;-84
2023/07/04 02:11:54;;;;;;;16.60;5.40;;;;;;;12.30;84.40;100046.21;219333;1270;141554;-83
2023/07/04 02:16:54;;;;;;;13.40;5.60;;;;;;;12.25;84.67;100042.98;220299;1267;97992;-84
2023/07/04 02:21:54;;;;;;;11.40;5.80;;;;;;;12.22;83.93;100045.04;219481;1267;140605;-84
2023/07/04 02:26:55;;;;;;;11.60;5.20;;;;;;;12.20;83.91;100039.42;219804;1267;138636;-83
2023/07/04 02:31:55;;;;;;;13.50;5.60;;;;;;;12.16;84.23;100040.86;219365;1265;141529;-84
2023/07/04 02:36:56;;;;;;;14.70;5.60;;;;;;;12.12;83.97;100044.66;219847;1266;139458;-83
2023/07/04 02:41:56;;;;;;;12.60;5.60;;;;;;;12.11;84.50;100041.83;219338;1265;140076;-83
2023/07/04 02:46:57;;;;;;;14.60;4.80;;;;;;;12.11;85.06;100037.95;219974;1266;138930;-84
2023/07/04 02:51:57;;;;;;;14.60;5.50;;;;;;;12.10;84.69;100032.36;219278;1270;140586;-84
2023/07/04 02:56:59;;;;;;;12.30;5.30;;;;;;;12.10;85.11;100024.48;219959;1266;138790;-84
2023/07/04 03:01:59;;;;;;;11.90;5.20;;;;;;;12.10;84.77;100022.03;219236;1268;141728;-85
2023/07/04 03:07:00;;;;;;;15.10;5.10;;;;;;;12.13;85.06;100022.44;219703;1269;140003;-84
2023/07/04 03:12:00;;;;;;;15.90;6.10;;;;;;;12.16;85.89;100027.77;219409;1266;140928;-85
2023/07/04 03:17:01;;;;;;;17.80;7.30;;;;;;;12.16;85.43;100021.31;219951;1266;138995;-84
2023/07/04 03:22:01;;;;;;;12.90;5.90;;;;;;;12.18;85.65;100020.45;219364;1266;140694;-84
2023/07/04 03:27:02;;;;;;;14.90;6.40;;;;;;;12.20;86.30;100024.63;219911;1266;139125;-84
2023/07/04 03:32:03;;;;;;;14.70;6.30;;;;;;;12.23;86.87;100024.69;219479;1265;141627;-84
2023/07/04 03:37:03;;;;;;;16.30;6.30;;;;;;;12.25;86.71;100020.59;219990;1268;140227;-85
2023/07/04 03:42:04;;;;;;;26.50;6.20;;;;;;;12.33;86.38;100017.58;219564;1265;141348;-84
2023/07/04 03:47:05;;;;;;;21.10;5.90;;;;;;;12.42;86.25;100015.27;220130;1265;139513;-84
2023/07/04 03:52:06;;;;;;;14.30;6.20;;;;;;;12.51;86.08;100012.48;219581;1270;141911;-85
2023/07/04 03:57:08;;;;;;;17.60;6.40;;;;;;;12.60;85.97;100007.86;220145;1266;139491;-84
2023/07/04 04:02:09;;;;;;;16.10;6.40;;;;;;;12.73;85.60;100004.67;219527;1265;141077;-85
2023/07/04 04:07:10;;;;;;;19.70;6.90;;;;;;;12.85;85.68;99999.23;219914;1266;138936;-84
2023/07/04 04:12:11;;;;;;;19.80;6.90;;;;;;;12.96;85.19;99996.98;219456;1266;141236;-85
2023/07/04 04:17:11;;;;;;;17.20;6.50;;;;;;;13.10;85.03;99997.23;219995;1268;138926;-85
2023/07/04 04:22:12;;;;;;;13.80;5.50;;;;;;;13.26;84.70;99999.50;219661;1265;141833;-82
2023/07/04 04:27:13;;;;;;;14.20;5.60;;;;;;;13.41;84.51;99996.55;220063;1266;139294;-86
2023/07/04 04:32:14;;;;;;;12.10;5.70;;;;;;;13.53;84.04;100002.08;219451;1265;141608;-85
2023/07/04 04:37:16;;;;;;;15.40;5.40;;;;;;;13.71;83.74;100004.05;219813;1269;139468;-83
2023/07/04 04:42:16;;;;;;;17.00;4.90;;;;;;;13.98;83.06;100003.27;219355;1268;140371;-85
2023/07/04 04:47:16;;;;;;;17.80;5.80;;;;;;;14.30;82.04;100008.34;220194;1266;139582;-85
2023/07/04 04:52:21;;;;;;;13.80;4.60;;;;;;;14.65;80.74;100011.81;219645;1270;143708;-85
2023/07/04 04:57:23;;;;;;;18.10;5.70;;;;;;;15.03;79.41;100015.90;219722;1266;138728;-82
2023/07/04 05:02:24;;;;;;;11.20;4.20;;;;;;;15.38;78.16;100016.23;219336;1266;140480;-84
2023/07/04 05:07:24;;;;;;;13.10;5.20;;;;;;;15.68;77.30;100019.09;219702;1265;139273;-83
2023/07/04 05:12:25;;;;;;;17.20;4.80;;;;;;;15.96;76.38;100023.06;219496;1265;141364;-84
2023/07/04 05:17:25;;;;;;;13.90;4.40;;;;;;;16.24;74.99;100027.79;219852;1265;139043;-85
2023/07/04 05:22:26;;;;;;;13.90;4.30;;;;;;;16.52;73.66;100025.95;219513;1270;140496;-83
2023/07/04 05:27:26;;;;;;;17.40;4.70;;;;;;;16.85;73.23;100025.11;220096;1268;139271;-85
2023/07/04 05:32:27;;;;;;;14.30;4.60;;;;;;;17.25;71.42;100027.20;219612;1266;140317;-83
2023/07/04 05:37:28;;;;;;;13.80;4.50;;;;;;;17.72;69.42;100018.23;220115;1268;139491;-85
2023/07/04 05:42:29;;;;;;;13.50;4.30;;;;;;;18.22;68.22;100013.29;219412;1269;142199;-85
2023/07/04 05:47:29;;;;;;;14.20;4.10;;;;;;;18.75;66.09;100017.82;220054;1265;138925;-84
2023/07/04 05:52:31;;;;;;;12.50;4.10;;;;;;;19.22;64.55;100019.45;219728;1265;140713;-83
2023/07/04 05:57:32;;;;;;;16.10;4.70;;;;;;;19.72;63.53;100016.54;220131;1266;139011;-86
2023/07/04 06:02:33;;;;;;;14.80;5.10;;;;;;;20.27;61.80;100011.02;219779;1265;140235;-83
2023/07/04 06:07:33;;;;;;;12.30;4.10;;;;;;;20.68;60.55;100010.17;220322;1265;138675;-84
2023/07/04 06:12:34;;;;;;;11.40;3.50;;;;;;;21.12;59.76;100011.95;219645;1265;141023;-83
2023/07/04 06:17:34;;;;;;;18.10;4.40;;;;;;;21.46;58.12;100011.96;220310;1268;137050;-85
2023/07/04 06:22:35;;;;;;;13.60;4.00;;;;;;;21.79;57.65;100015.67;219842;1266;140508;-85
2023/07/04 06:27:36;;;;;;;11.50;4.10;;;;;;;22.11;57.61;100019.06;220778;1266;138973;-84
2023/07/04 06:32:36;;;;;;;9.40;4.10;;;;;;;22.47;56.54;100022.98;219956;1269;140112;-83
2023/07/04 06:37:37;;;;;;;13.80;4.40;;;;;;;22.83;55.94;100022.00;220433;1265;138619;-87
2023/07/04 06:42:37;;;;;;;9.10;3.90;;;;;;;23.16;54.79;100027.19;219807;1266;140172;-85
2023/07/04 06:47:38;;;;;;;11.00;4.20;;;;;;;23.49;54.60;100042.03;219926;1266;138766;-83
2023/07/04 06:52:39;;;;;;;11.30;4.20;;;;;;;23.74;53.92;100040.88;219535;1265;139935;-83
2023/07/04 06:57:39;;;;;;;13.80;4.30;;;;;;;24.10;52.77;100043.32;220235;1264;138548;-84
2023/07/04 07:02:40;;;;;;;10.10;4.50;;;;;;;24.30;52.73;100048.56;219763;1268;140141;-86
2023/07/04 07:07:40;;;;;;;10.90;4.50;;;;;;;24.50;50.91;100045.06;220097;1265;138890;-82
2023/07/04 07:12:41;;;;;;;10.30;4.70;;;;;;;24.58;50.53;100046.05;219494;1266;141074;-84
2023/07/04 07:17:41;;;;;;;13.40;6.00;;;;;;;24.66;50.49;100046.94;219989;1265;138667;-83
2023/07/04 07:22:42;;;;;;;11.20;5.00;;;;;;;24.90;49.56;100052.63;219414;1266;140100;-84
2023/07/04 07:27:43;;;;;;;11.50;4.70;;;;;;;25.10;48.36;100050.51;220097;1264;138889;-83
2023/07/04 07:32:43;;;;;;;10.70;5.20;;;;;;;25.22;48.40;100051.23;219426;1268;139925;-83
2023/07/04 07:37:43;;;;;;;13.80;5.80;;;;;;;25.61;47.95;100055.62;219844;1271;138421;-84
2023/07/04 07:42:44;;;;;;;14.30;5.70;;;;;;;25.97;47.89;100057.98;219236;1265;141649;-84
2023/07/04 07:47:44;;;;;;;13.60;5.20;;;;;;;26.29;46.55;100052.65;219920;1266;138237;-82
2023/07/04 07:52:45;;;;;;;14.60;6.10;;;;;;;26.54;46.41;100050.48;219505;1269;140035;-83
2023/07/04 07:57:45;;;;;;;10.30;5.30;;;;;;;26.69;45.78;100053.18;219738;1269;138255;-83
2023/07/04 08:02:46;;;;;;;15.50;6.80;;;;;;;26.81;45.04;100059.59;219033;1265;140506;-83
2023/07/04 08:07:46;;;;;;;17.60;6.60;;;;;;;27.03;45.29;100055.25;219604;1270;138942;-85
2023/07/04 08:12:47;;;;;;;13.70;6.00;;;;;;;27.23;44.23;100050.54;219333;1266;140671;-81
2023/07/04 08:17:47;;;;;;;13.30;6.20;;;;;;;27.53;43.91;100052.36;219978;1265;139678;-82
2023/07/04 08:22:48;;;;;;;13.50;6.00;;;;;;;27.78;43.64;100054.63;219631;1266;141917;-82
2023/07/04 08:27:48;;;;;;;15.30;6.40;;;;;;;28.35;42.60;100053.65;220663;1269;138658;-81
2023/07/04 08:32:48;;;;;;;16.60;6.10;;;;;;;28.56;40.73;100061.39;219791;1268;141129;-81
2023/07/04 08:37:49;;;;;;;17.40;6.90;;;;;;;28.41;39.81;100062.81;220238;1268;138672;-81
2023/07/04 08:42:49;;;;;;;15.20;6.10;;;;;;;28.44;40.02;100067.98;219427;1265;139489;-80
2023/07/04 08:47:54;;;;;;;15.20;6.10;;;;;;;28.63;39.61;100066.92;220114;1266;139309;-81
2023/07/04 08:53:11;;;;;;;11.40;5.40;;;;;;;28.62;38.46;100073.92;219623;1265;140092;-83
2023/07/04 08:58:36;;;;;;;13.60;5.60;;;;;;;28.72;38.43;100082.36;220319;1266;105753;-81
2023/07/04 09:03:43;;;;;;;16.40;5.80;;;;;;;28.43;37.56;100087.06;219740;1268;140483;-83
2023/07/04 09:09:16;;;;;;;12.20;5.00;;;;;;;28.32;37.13;100085.13;220515;1265;138998;-84
2023/07/04 09:14:52;;;;;;;14.20;4.20;;;;;;;28.32;36.80;100085.39;220337;1266;382139;-83
2023/07/04 09:19:53;;;;;;;10.50;4.70;;;;;;;28.29;36.44;100090.52;219567;1266;140260;-83
2023/07/04 09:24:54;;;;;;;9.50;4.70;;;;;;;28.37;37.41;100091.44;220143;1268;138968;-83
2023/07/04 09:29:57;;;;;;;11.20;4.90;;;;;;;28.82;36.94;100093.32;219661;1266;139775;-84
2023/07/04 09:35:03;;;;;;;8.20;4.20;;;;;;;29.17;36.68;100093.44;220626;1268;138101;-85
2023/07/04 09:40:05;;;;;;;9.90;5.00;;;;;;;29.39;36.19;100093.69;220808;1269;140819;-84
2023/07/04 09:45:09;;;;;;;9.80;4.60;;;;;;;29.80;36.49;100100.90;221528;1266;138755;-83
2023/07/04 09:50:23;;;;;;;11.10;5.10;;;;;;;29.99;35.98;100100.33;220864;1266;140476;-84
2023/07/04 09:55:27;;;;;;;14.40;4.80;;;;;;;30.08;36.67;100105.27;221122;1265;138892;-86
2023/07/04 10:00:27;;;;;;;12.60;6.00;;;;;;;30.31;35.39;100107.45;220649;1265;141749;-84
2023/07/04 10:05:31;;;;;;;10.90;4.50;;;;;;;30.39;34.24;100110.74;221323;1265;138373;-84
2023/07/04 10:10:52;;;;;;;11.50;4.50;;;;;;;30.11;34.18;100109.55;220934;1268;139473;-82
2023/07/04 10:15:52;;;;;;;11.70;4.10;;;;;;;29.73;34.33;100107.09;221751;1265;138536;-86
2023/07/04 10:20:55;;;;;;;11.10;5.10;;;;;;;29.76;34.30;100105.29;222725;1265;139764;-88
2023/07/04 10:25:59;;;;;;;11.20;5.10;;;;;;;29.90;34.50;100104.55;223159;1265;138252;-84
2023/07/04 10:31:06;;;;;;;11.40;4.50;;;;;;;30.05;34.92;100106.70;219764;1265;139663;-84
2023/07/04 10:36:10;;;;;;;9.50;4.90;;;;;;;30.22;34.18;100107.58;219926;1265;138788;-85
2023/07/04 10:41:22;;;;;;;14.00;6.60;;;;;;;30.11;33.99;100110.38;219349;1265;270972;-82
2023/07/04 10:46:27;;;;;;;12.60;5.20;;;;;;;30.08;33.66;100102.11;220143;1265;105996;-84
2023/07/04 10:51:35;;;;;;;11.10;5.00;;;;;;;30.07;32.40;100113.73;219393;1266;139946;-85
2023/07/04 10:56:36;;;;;;;9.60;4.60;;;;;;;29.77;32.82;100117.83;220121;1268;138732;-85
2023/07/04 11:01:44;;;;;;;12.30;4.80;;;;;;;29.57;32.31;100120.48;219388;1265;141161;-84
2023/07/04 11:07:01;;;;;;;12.60;6.20;;;;;;;29.42;33.66;100113.64;219897;1266;138183;-84
2023/07/04 11:12:05;;;;;;;11.20;5.40;;;;;;;29.83;32.99;100112.80;219465;1265;140051;-82
2023/07/04 11:17:11;;;;;;;31.90;5.90;;;;;;;29.75;32.22;100120.91;220356;1266;138242;-83
2023/07/04 11:22:15;;;;;;;28.90;7.40;;;;;;;29.63;32.53;100123.80;220246;1264;143418;-85
2023/07/04 11:27:22;;;;;;;12.60;5.20;;;;;;;28.97;32.40;100126.80;221209;1266;138716;-83
2023/07/04 11:32:38;;;;;;;28.20;7.90;;;;;;;28.67;34.02;100124.05;220673;1266;140073;-84
2023/07/04 11:37:44;;;;;;;10.20;4.70;;;;;;;28.95;32.81;100127.83;221048;1266;139027;-81
2023/07/04 11:42:50;;;;;;;15.70;5.90;;;;;;;29.01;33.59;100124.57;220676;1266;142284;-84
2023/07/04 11:47:55;;;;;;;15.70;6.70;;;;;;;29.26;32.91;100127.95;220959;1266;138729;-83
2023/07/04 11:52:58;;;;;;;14.90;7.40;;;;;;;29.00;32.48;100124.08;220975;1266;139465;-84
2023/07/04 11:58:07;;;;;;;11.30;5.80;;;;;;;29.15;33.42;100129.46;224172;1265;97468;-80
2023/07/04 12:03:20;;;;;;;12.20;6.40;;;;;;;29.31;33.46;100119.81;221909;1265;139794;-84
2023/07/04 12:08:47;;;;;;;12.90;7.30;;;;;;;29.05;32.69;100126.54;223446;1266;138716;-85
2023/07/04 12:13:50;;;;;;;12.50;6.00;;;;;;;29.03;34.03;100122.61;222035;1266;140155;-83
2023/07/04 12:18:50;;;;;;;14.80;7.90;;;;;;;29.21;33.43;100122.38;219968;1266;139072;-82
2023/07/04 12:23:52;;;;;;;15.20;7.70;;;;;;;29.49;33.62;100115.98;219420;1268;140435;-83
2023/07/04 12:28:53;;;;;;;14.30;7.90;;;;;;;29.72;32.75;100114.16;220306;1268;139731;-83
2023/07/04 12:33:53;;;;;;;17.10;10.40;;;;;;;29.79;32.30;100115.80;220495;1265;137658;-83
2023/07/04 12:38:55;;;;;;;14.60;8.00;;;;;;;29.56;32.47;100112.13;219717;1266;140684;-84
2023/07/04 12:44:02;;;;;;;13.90;7.70;;;;;;;29.65;33.38;100110.33;220415;1266;138760;-83
2023/07/04 12:49:04;;;;;;;16.90;10.70;;;;;;;29.66;32.18;100108.53;219939;1266;141567;-82
2023/07/04 12:54:07;;;;;;;16.40;9.30;;;;;;;29.42;31.96;100107.36;220201;1266;138956;-83
2023/07/04 12:59:36;;;;;;;16.00;10.20;;;;;;;29.31;32.90;100110.94;220025;1265;140077;-84
2023/07/04 13:04:36;;;;;;;19.00;11.40;;;;;;;28.92;32.56;100115.86;220437;1266;97999;-82
2023/07/04 13:09:41;;;;;;;17.50;11.10;;;;;;;28.60;33.23;100113.47;219852;1266;139939;-84
2023/07/04 13:14:42;;;;;;;;;;;;;;;28.61;33.04;100112.53;220667;1269;138608;-87
2023/07/04 13:19:43;;;;;;;18.40;11.00;;;;;;;28.44;32.99;100114.10;220379;1269;126797;-87
2023/07/04 13:24:44;;;;;;;17.00;10.60;;;;;;;28.39;33.24;100115.81;220707;1271;138486;-82
2023/07/04 13:29:55;;;;;;;17.20;11.40;;;;;;;28.38;33.12;100118.98;220181;1268;141357;-83
2023/07/04 13:34:56;;;;;;;19.50;11.10;;;;;;;28.44;32.70;100112.50;220902;1268;139223;-83
2023/07/04 13:39:57;;;;;;;21.00;11.70;;;;;;;28.56;33.32;100118.95;220437;1266;140755;-84
2023/07/04 13:44:57;;;;;;;21.20;11.00;;;;;;;28.56;33.00;100117.14;220905;1266;138601;-86
2023/07/04 13:50:00;;;;;;;19.40;10.80;;;;;;;28.42;32.66;100119.52;220985;1266;140598;-84
2023/07/04 13:55:00;;;;;;;18.10;11.60;;;;;;;28.32;33.02;100125.84;223487;1265;139202;-84
2023/07/04 14:00:01;;;;;;;29.60;12.40;;;;;;;28.23;33.97;100119.56;222693;1265;139489;-84
2023/07/04 14:05:02;;;;;;;18.80;11.40;;;;;;;28.47;33.92;100117.25;219917;1266;138883;-86
2023/07/04 14:10:02;;;;;;;22.50;11.10;;;;;;;28.53;33.92;100123.41;219584;1266;140436;-84
2023/07/04 14:15:03;;;;;;;19.10;10.50;;;;;;;28.33;32.87;100125.29;219997;1267;139191;-84
2023/07/04 14:20:05;;;;;;;18.70;11.10;;;;;;;28.19;33.45;100122.56;219624;1267;141421;-82
2023/07/04 14:25:05;;;;;;;17.10;11.80;;;;;;;28.20;32.68;100120.61;219975;1268;138934;-87
2023/07/04 14:30:07;;;;;;;17.20;10.10;;;;;;;28.10;33.06;100112.94;219503;1265;140710;-84
2023/07/04 14:35:08;;;;;;;16.30;10.00;;;;;;;28.11;33.71;100108.98;220293;1266;139307;-82
2023/07/04 14:40:09;;;;;;;18.80;9.40;;;;;;;28.09;33.29;100115.23;219418;1270;140233;-84
2023/07/04 14:45:10;;;;;;;15.20;9.40;;;;;;;27.90;33.53;100119.02;220013;1266;138432;-83
2023/07/04 14:50:11;;;;;;;16.10;9.80;;;;;;;27.81;33.71;100132.30;219549;1266;141195;-83
2023/07/04 14:55:11;;;;;;;18.70;10.60;;;;;;;27.74;33.35;100124.21;220453;1266;138204;-83
2023/07/04 15:00:15;;;;;;;15.70;10.50;;;;;;;27.63;33.44;100128.93;221175;1265;140021;-83
2023/07/04 15:05:16;;;;;;;15.60;9.20;;;;;;;27.45;33.72;100126.96;223670;1266;139247;-83
2023/07/04 15:10:18;;;;;;;17.70;10.30;;;;;;;27.35;33.96;100126.81;222516;1269;138930;-82
2023/07/04 15:15:19;;;;;;;18.20;9.30;;;;;;;27.14;34.21;100128.88;223227;1266;138793;-82
2023/07/04 15:20:19;;;;;;;14.90;9.10;;;;;;;27.01;35.08;100123.55;220840;1266;140876;-81
2023/07/04 15:25:20;;;;;;;19.30;9.50;;;;;;;26.88;35.13;100123.95;221359;1266;138186;-85
2023/07/04 15:30:21;;;;;;;18.90;9.00;;;;;;;26.68;35.15;100126.48;221021;1266;140867;-85
2023/07/04 15:35:21;;;;;;;14.80;9.30;;;;;;;26.61;35.45;100116.46;221516;1265;138653;-83
2023/07/04 15:40:22;;;;;;;16.00;8.90;;;;;;;26.65;35.96;100116.92;222690;1266;140600;-83
2023/07/04 15:45:22;;;;;;;15.00;9.50;;;;;;;26.60;35.48;100117.54;223657;1266;137958;-83
2023/07/04 15:50:23;;;;;;;15.40;8.60;;;;;;;26.52;35.15;100121.42;220685;1268;141421;-84
2023/07/04 15:55:23;;;;;;;15.70;8.90;;;;;;;26.38;35.59;100112.75;220277;1268;138920;-82
2023/07/04 16:00:24;;;;;;;18.60;8.80;;;;;;;26.17;35.60;100116.04;219882;1268;140078;-85
2023/07/04 16:05:24;;;;;;;18.80;10.30;;;;;;;25.99;35.79;100120.99;220355;1268;138747;-86
2023/07/04 16:10:25;;;;;;;16.80;9.40;;;;;;;25.81;36.47;100118.61;219597;1269;140097;-84
2023/07/04 16:15:25;;;;;;;15.30;8.40;;;;;;;25.71;36.61;100113.48;220180;1265;139163;-85
2023/07/04 16:20:26;;;;;;;14.10;8.60;;;;;;;25.67;36.92;100113.98;219536;1265;140623;-85
2023/07/04 16:25:26;;;;;;;12.80;7.80;;;;;;;25.61;37.20;100119.35;220222;1267;138946;-87
2023/07/04 16:30:27;;;;;;;13.70;7.70;;;;;;;25.59;38.51;100121.73;219772;1267;140307;-84
2023/07/04 16:35:27;;;;;;;15.20;7.50;;;;;;;25.52;38.48;100125.46;220220;1268;138293;-82
2023/07/04 16:40:28;;;;;;;14.90;7.60;;;;;;;25.46;39.12;100127.29;219681;1266;140552;-84
2023/07/04 16:45:28;;;;;;;16.10;8.60;;;;;;;25.31;38.07;100138.06;220532;1270;138133;-85
2023/07/04 16:50:29;;;;;;;14.80;7.60;;;;;;;25.13;38.55;100137.81;220707;1266;140083;-84
2023/07/04 16:55:33;;;;;;;15.50;8.00;;;;;;;24.98;38.47;100132.74;221219;1266;138251;-83
2023/07/04 17:00:34;;;;;;;13.60;7.40;;;;;;;24.92;38.86;100135.34;220837;1265;141060;-85
2023/07/04 17:05:37;;;;;;;12.60;5.70;;;;;;;24.82;39.03;100137.29;221410;1268;138411;-85
2023/07/04 17:10:44;;;;;;;12.80;6.70;;;;;;;24.69;39.30;100142.70;220858;1269;141164;-85
2023/07/04 17:15:50;;;;;;;11.00;5.60;;;;;;;24.59;39.75;100141.52;221396;1267;138829;-86
2023/07/04 17:20:50;;;;;;;;;;;;;;;24.51;40.67;100148.77;221256;1269;141458;-88
2023/07/04 17:25:52;;;;;;;10.70;5.50;;;;;;;24.36;40.93;100154.47;222388;1266;124975;-86
2023/07/04 17:30:57;;;;;;;10.60;5.30;;;;;;;24.26;41.60;100161.96;222965;1264;140367;-85
2023/07/04 17:36:06;;;;;;;14.70;6.30;;;;;;;24.18;41.80;100162.78;222255;1267;138753;-85
2023/07/04 17:41:10;;;;;;;19.30;6.00;;;;;;;24.07;42.30;100169.41;219545;1265;139789;-86
2023/07/04 17:46:11;;;;;;;11.10;5.90;;;;;;;23.95;42.77;100181.71;220125;1269;97955;-86
2023/07/04 17:51:14;;;;;;;12.70;4.50;;;;;;;23.82;43.14;100186.77;219811;1268;141198;-86
2023/07/04 17:56:18;;;;;;;10.40;5.10;;;;;;;23.67;43.66;100189.74;220113;1269;138672;-84
2023/07/04 18:01:21;;;;;;;8.70;4.10;;;;;;;23.56;44.43;100191.90;219463;1269;139897;-89
2023/07/04 18:06:22;;;;;;;13.10;5.30;;;;;;;23.44;44.96;100192.81;219788;1270;138802;-86
2023/07/04 18:11:27;;;;;;;8.40;4.50;;;;;;;23.32;45.42;100201.66;219580;1270;141522;-86
2023/07/04 18:16:30;;;;;;;13.90;4.60;;;;;;;23.16;46.13;100209.89;220206;1267;97951;-86
2023/07/04 18:21:31;;;;;;;10.10;4.30;;;;;;;23.03;46.36;100212.14;219951;1270;140764;-86
2023/07/04 18:26:32;;;;;;;10.70;4.60;;;;;;;22.84;46.82;100218.02;220053;1269;138563;-86
2023/07/04 18:31:33;;;;;;;8.70;4.10;;;;;;;22.68;46.84;100225.63;220202;1267;141359;-86
2023/07/04 18:36:36;;;;;;;7.80;3.80;;;;;;;22.55;46.96;100225.32;221027;1265;138445;-83
2023/07/04 18:41:39;;;;;;;12.40;4.60;;;;;;;22.36;47.04;100227.50;220626;1267;140365;-85
2023/07/04 18:46:40;;;;;;;9.60;4.00;;;;;;;22.18;47.57;100227.48;221058;1270;97841;-86
2023/07/04 18:51:41;;;;;;;11.30;4.30;;;;;;;22.03;47.88;100233.85;220611;1268;139904;-87
2023/07/04 18:56:43;;;;;;;11.50;4.60;;;;;;;21.84;48.62;100238.41;221099;1267;138129;-87
2023/07/04 19:01:45;;;;;;;11.50;4.40;;;;;;;21.65;50.39;100249.45;220862;1267;141300;-86
2023/07/04 19:06:55;;;;;;;12.00;4.10;;;;;;;21.41;51.19;100261.38;221339;1269;139069;-88
2023/07/04 19:12:02;;;;;;;13.60;4.90;;;;;;;21.15;52.08;100271.48;221263;1267;141850;-87
2023/07/04 19:17:03;;;;;;;10.00;4.20;;;;;;;20.92;52.99;100277.44;223381;1267;138147;-88
2023/07/04 19:22:07;;;;;;;10.10;3.70;;;;;;;20.71;53.97;100285.09;222440;1267;140807;-89
2023/07/04 19:27:19;;;;;;;11.90;3.70;;;;;;;20.50;54.69;100290.70;220206;1271;138673;-88
2023/07/04 19:32:21;;;;;;;11.20;4.90;;;;;;;20.29;55.35;100301.30;219454;1269;139769;-90
2023/07/04 19:37:21;;;;;;;11.40;4.00;;;;;;;20.08;55.93;100308.52;220051;1267;138690;-87
2023/07/04 19:42:22;;;;;;;9.80;3.90;;;;;;;19.87;56.79;100317.04;219771;1267;139923;-87
2023/07/04 19:47:26;;;;;;;9.30;4.10;;;;;;;19.66;57.29;100324.08;220472;1267;138371;-89
2023/07/04 19:52:26;;;;;;;11.40;4.90;;;;;;;19.48;58.32;100333.29;220110;1265;141841;-86
2023/07/04 19:57:28;;;;;;;18.10;4.20;;;;;;;19.30;60.03;100340.29;220661;1269;138171;-87
2023/07/04 20:02:28;;;;;;;18.50;5.00;;;;;;;19.16;60.40;100348.92;219808;1267;139858;-87
2023/07/04 20:07:29;;;;;;;11.60;4.70;;;;;;;19.03;61.32;100349.65;220343;1265;138178;-87
2023/07/04 20:12:29;;;;;;;9.50;3.80;;;;;;;18.88;61.88;100356.52;219980;1270;140760;-87
2023/07/04 20:17:30;;;;;;;10.00;3.90;;;;;;;18.76;61.99;100360.82;220652;1267;138150;-87
2023/07/04 20:22:30;;;;;;;11.20;4.00;;;;;;;18.60;62.53;100362.77;221281;1266;139891;-87
2023/07/04 20:27:31;;;;;;;10.00;4.10;;;;;;;18.45;62.63;100360.71;221790;1265;137966;-89
2023/07/04 20:32:31;;;;;;;10.40;4.20;;;;;;;18.29;63.62;100364.47;221295;1265;140382;-87
2023/07/04 20:37:36;;;;;;;10.60;4.40;;;;;;;18.15;63.96;100368.50;221655;1266;138237;-87
2023/07/04 20:42:37;;;;;;;10.80;5.00;;;;;;;18.04;64.18;100373.25;221674;1266;141295;-88
2023/07/04 20:47:37;;;;;;;10.50;5.20;;;;;;;17.94;64.58;100374.19;221549;1266;138704;-87
2023/07/04 20:52:40;;;;;;;9.40;4.70;;;;;;;17.81;65.19;100380.16;221276;1267;140225;-86
2023/07/04 20:57:40;;;;;;;10.10;4.60;;;;;;;17.71;64.49;100380.11;221916;1265;138452;-87
2023/07/04 21:02:48;;;;;;;10.20;4.90;;;;;;;17.64;64.66;100383.42;222785;1265;140669;-87
2023/07/04 21:07:49;;;;;;;10.40;4.90;;;;;;;17.56;65.16;100382.93;223353;1265;138887;-86
2023/07/04 21:12:49;;;;;;;12.10;4.80;;;;;;;17.45;65.88;100385.66;220344;1266;139844;-86
2023/07/04 21:17:50;;;;;;;10.30;4.90;;;;;;;17.33;66.68;100384.83;220812;1265;138217;-86
2023/07/04 21:22:50;;;;;;;9.50;4.60;;;;;;;17.18;66.66;100387.54;220390;1266;140137;-87
2023/07/04 21:27:51;;;;;;;12.60;6.00;;;;;;;17.02;67.07;100392.55;220820;1265;138783;-86
2023/07/04 21:32:52;;;;;;;9.60;3.70;;;;;;;16.91;68.51;100394.24;220345;1266;139798;-87
2023/07/04 21:37:52;;;;;;;14.60;4.80;;;;;;;16.81;69.08;100391.77;220538;1265;137930;-87
2023/07/04 21:42:53;;;;;;;10.90;4.90;;;;;;;16.71;69.25;100394.38;219910;1265;140615;-82
2023/07/04 21:47:54;;;;;;;11.20;4.20;;;;;;;16.63;70.10;100398.70;220788;1266;139443;-85
2023/07/04 21:52:54;;;;;;;11.10;4.50;;;;;;;16.51;70.15;100408.31;220125;1265;140557;-85
2023/07/04 21:57:55;;;;;;;11.80;5.70;;;;;;;16.40;69.92;100412.67;220813;1265;99176;-86
2023/07/04 22:02:57;;;;;;;10.70;5.00;;;;;;;16.30;70.38;100407.52;219791;1265;140913;-85
2023/07/04 22:07:57;;;;;;;11.00;4.70;;;;;;;16.21;70.88;100415.80;219895;1268;138562;-85
2023/07/04 22:12:58;;;;;;;11.90;5.20;;;;;;;16.11;71.29;100417.91;219606;1269;141102;-84
2023/07/04 22:17:58;;;;;;;9.90;5.40;;;;;;;16.01;71.28;100422.55;220159;1266;139014;-84
2023/07/04 22:22:59;;;;;;;10.70;5.10;;;;;;;15.93;71.72;100431.91;219503;1266;141108;-84
2023/07/04 22:27:59;;;;;;;11.50;5.10;;;;;;;15.87;72.28;100434.98;220198;1265;99176;-84
2023/07/04 22:33:00;;;;;;;9.20;4.60;;;;;;;15.79;72.80;100437.54;219598;1267;141493;-84
2023/07/04 22:38:00;;;;;;;9.80;5.00;;;;;;;15.70;73.04;100443.33;219838;1269;258715;-84